Terminal Aerodrome Forecast
Issued by NWS

Home | Current Version | Previous Version | Graphics & Text | Print | Product List | Glossary On
Versions: 1 2 3 4 5 6 7 8 9 10 11 12 13 14 15 16 17 18 19 20 21 22 23 24 25 26 27 28
000
FTUS45 KGGW 281138
TAFOLF
TAF
KOLF 281138Z 2812/2912 06004KT P6SM SCT008 BKN016
     FM281600 09006KT P6SM SCT020
     FM281900 10006KT P6SM BKN035
     FM282000 10006KT P6SM VCTS BKN030CB
     FM282100 10006KT P6SM VCSH SCT060 PROB30 2821/2824 6SM TS
      BKN060CB BKN070
     FM290000 10006KT P6SM SCT090=

USA.gov is the U.S. government's official web portal to all federal, state and local government web resources and services.